sensor_id;sensor_type;location;lat;lon;timestamp;P1;durP1;ratioP1;P2;durP2;ratioP2
16662;SDS011;8445;51.270;9.434;2023-02-04T00:00:45;18.33;;;4.20;;
16662;SDS011;8445;51.270;9.434;2023-02-04T00:03:12;31.30;;;4.93;;
16662;SDS011;8445;51.270;9.434;2023-02-04T00:05:41;18.23;;;3.87;;
16662;SDS011;8445;51.270;9.434;2023-02-04T00:08:08;10.93;;;3.10;;
16662;SDS011;8445;51.270;9.434;2023-02-04T00:10:34;21.37;;;4.77;;
16662;SDS011;8445;51.270;9.434;2023-02-04T00:13:01;24.27;;;5.03;;
16662;SDS011;8445;51.270;9.434;2023-02-04T00:15:27;17.50;;;3.83;;
16662;SDS011;8445;51.270;9.434;2023-02-04T00:17:53;21.20;;;5.23;;
16662;SDS011;8445;51.270;9.434;2023-02-04T00:20:18;29.07;;;4.77;;
16662;SDS011;8445;51.270;9.434;2023-02-04T00:22:44;18.13;;;3.90;;
16662;SDS011;8445;51.270;9.434;2023-02-04T00:25:10;18.27;;;3.90;;
16662;SDS011;8445;51.270;9.434;2023-02-04T00:27:35;16.47;;;3.77;;
16662;SDS011;8445;51.270;9.434;2023-02-04T00:30:01;20.80;;;5.40;;
16662;SDS011;8445;51.270;9.434;2023-02-04T00:32:28;31.67;;;5.17;;
16662;SDS011;8445;51.270;9.434;2023-02-04T00:34:53;30.73;;;5.17;;
16662;SDS011;8445;51.270;9.434;2023-02-04T00:37:19;20.10;;;5.23;;
16662;SDS011;8445;51.270;9.434;2023-02-04T00:39:44;20.47;;;4.43;;
16662;SDS011;8445;51.270;9.434;2023-02-04T00:42:10;19.63;;;6.00;;
16662;SDS011;8445;51.270;9.434;2023-02-04T00:44:35;19.37;;;5.00;;
16662;SDS011;8445;51.270;9.434;2023-02-04T00:47:01;18.07;;;3.63;;
16662;SDS011;8445;51.270;9.434;2023-02-04T00:49:28;18.53;;;3.77;;
16662;SDS011;8445;51.270;9.434;2023-02-04T00:51:54;12.13;;;2.50;;
16662;SDS011;8445;51.270;9.434;2023-02-04T00:54:20;14.57;;;3.70;;
16662;SDS011;8445;51.270;9.434;2023-02-04T00:56:46;16.60;;;3.80;;
16662;SDS011;8445;51.270;9.434;2023-02-04T00:59:11;26.80;;;3.53;;
16662;SDS011;8445;51.270;9.434;2023-02-04T01:01:37;9.27;;;2.90;;
16662;SDS011;8445;51.270;9.434;2023-02-04T01:04:02;19.73;;;4.27;;
16662;SDS011;8445;51.270;9.434;2023-02-04T01:06:28;16.40;;;3.27;;
16662;SDS011;8445;51.270;9.434;2023-02-04T01:08:54;9.70;;;3.33;;
16662;SDS011;8445;51.270;9.434;2023-02-04T01:11:21;10.53;;;3.20;;
16662;SDS011;8445;51.270;9.434;2023-02-04T01:13:47;6.87;;;2.53;;
16662;SDS011;8445;51.270;9.434;2023-02-04T01:16:12;10.40;;;2.80;;
16662;SDS011;8445;51.270;9.434;2023-02-04T01:18:38;12.73;;;3.03;;
16662;SDS011;8445;51.270;9.434;2023-02-04T01:21:04;16.07;;;3.33;;
16662;SDS011;8445;51.270;9.434;2023-02-04T01:23:30;19.27;;;4.10;;
16662;SDS011;8445;51.270;9.434;2023-02-04T01:25:55;20.17;;;4.17;;
16662;SDS011;8445;51.270;9.434;2023-02-04T01:28:21;15.67;;;4.00;;
16662;SDS011;8445;51.270;9.434;2023-02-04T01:30:46;19.33;;;4.23;;
16662;SDS011;8445;51.270;9.434;2023-02-04T01:33:12;23.60;;;3.67;;
16662;SDS011;8445;51.270;9.434;2023-02-04T01:35:37;20.90;;;4.87;;
16662;SDS011;8445;51.270;9.434;2023-02-04T01:38:03;20.73;;;4.47;;
16662;SDS011;8445;51.270;9.434;2023-02-04T01:40:28;20.53;;;4.20;;
16662;SDS011;8445;51.270;9.434;2023-02-04T01:42:55;18.43;;;4.10;;
16662;SDS011;8445;51.270;9.434;2023-02-04T01:45:22;24.23;;;4.70;;
16662;SDS011;8445;51.270;9.434;2023-02-04T01:47:48;20.20;;;4.13;;
16662;SDS011;8445;51.270;9.434;2023-02-04T01:50:14;17.70;;;3.73;;
16662;SDS011;8445;51.270;9.434;2023-02-04T01:52:41;21.37;;;3.87;;
16662;SDS011;8445;51.270;9.434;2023-02-04T01:55:19;19.93;;;4.27;;
16662;SDS011;8445;51.270;9.434;2023-02-04T01:57:48;17.77;;;3.87;;
16662;SDS011;8445;51.270;9.434;2023-02-04T02:00:18;24.87;;;5.20;;
16662;SDS011;8445;51.270;9.434;2023-02-04T02:02:49;10.97;;;2.80;;
16662;SDS011;8445;51.270;9.434;2023-02-04T02:05:22;22.67;;;4.53;;
16662;SDS011;8445;51.270;9.434;2023-02-04T02:07:55;18.20;;;4.83;;
16662;SDS011;8445;51.270;9.434;2023-02-04T02:10:27;24.53;;;4.63;;
16662;SDS011;8445;51.270;9.434;2023-02-04T02:12:53;16.57;;;3.30;;
16662;SDS011;8445;51.270;9.434;2023-02-04T02:15:20;17.37;;;4.00;;
16662;SDS011;8445;51.270;9.434;2023-02-04T02:17:47;14.10;;;3.50;;
16662;SDS011;8445;51.270;9.434;2023-02-04T02:20:14;19.60;;;4.03;;
16662;SDS011;8445;51.270;9.434;2023-02-04T02:22:54;21.53;;;4.13;;
16662;SDS011;8445;51.270;9.434;2023-02-04T02:25:26;5.47;;;2.43;;
16662;SDS011;8445;51.270;9.434;2023-02-04T02:27:52;22.10;;;4.97;;
16662;SDS011;8445;51.270;9.434;2023-02-04T02:30:18;20.50;;;3.73;;
16662;SDS011;8445;51.270;9.434;2023-02-04T02:32:47;24.77;;;4.57;;
16662;SDS011;8445;51.270;9.434;2023-02-04T02:35:14;26.17;;;4.67;;
16662;SDS011;8445;51.270;9.434;2023-02-04T02:37:40;21.43;;;4.40;;
16662;SDS011;8445;51.270;9.434;2023-02-04T02:40:05;24.40;;;4.13;;
16662;SDS011;8445;51.270;9.434;2023-02-04T02:42:32;18.87;;;4.13;;
16662;SDS011;8445;51.270;9.434;2023-02-04T02:44:57;21.73;;;3.97;;
16662;SDS011;8445;51.270;9.434;2023-02-04T02:47:24;18.57;;;3.83;;
16662;SDS011;8445;51.270;9.434;2023-02-04T02:49:51;26.90;;;4.87;;
16662;SDS011;8445;51.270;9.434;2023-02-04T02:52:17;18.00;;;3.80;;
16662;SDS011;8445;51.270;9.434;2023-02-04T02:54:44;27.77;;;5.33;;
16662;SDS011;8445;51.270;9.434;2023-02-04T02:57:18;15.90;;;3.53;;
16662;SDS011;8445;51.270;9.434;2023-02-04T02:59:45;26.63;;;4.07;;
16662;SDS011;8445;51.270;9.434;2023-02-04T03:02:12;23.43;;;5.33;;
16662;SDS011;8445;51.270;9.434;2023-02-04T03:04:41;21.17;;;4.90;;
16662;SDS011;8445;51.270;9.434;2023-02-04T03:07:10;29.27;;;4.67;;
16662;SDS011;8445;51.270;9.434;2023-02-04T03:09:37;24.37;;;5.20;;
16662;SDS011;8445;51.270;9.434;2023-02-04T03:12:03;23.07;;;4.07;;
16662;SDS011;8445;51.270;9.434;2023-02-04T03:14:30;22.57;;;5.23;;
16662;SDS011;8445;51.270;9.434;2023-02-04T03:16:56;28.30;;;5.23;;
16662;SDS011;8445;51.270;9.434;2023-02-04T03:19:25;17.27;;;4.37;;
16662;SDS011;8445;51.270;9.434;2023-02-04T03:21:52;22.50;;;4.10;;
16662;SDS011;8445;51.270;9.434;2023-02-04T03:24:21;18.43;;;4.63;;
16662;SDS011;8445;51.270;9.434;2023-02-04T03:26:47;18.10;;;3.87;;
16662;SDS011;8445;51.270;9.434;2023-02-04T03:29:12;17.53;;;4.43;;
16662;SDS011;8445;51.270;9.434;2023-02-04T03:31:38;15.80;;;3.53;;
16662;SDS011;8445;51.270;9.434;2023-02-04T03:34:03;16.73;;;3.30;;
16662;SDS011;8445;51.270;9.434;2023-02-04T03:36:29;17.70;;;4.07;;
16662;SDS011;8445;51.270;9.434;2023-02-04T03:38:54;17.30;;;3.67;;
16662;SDS011;8445;51.270;9.434;2023-02-04T03:41:20;12.37;;;3.60;;
16662;SDS011;8445;51.270;9.434;2023-02-04T03:43:46;14.00;;;3.63;;
16662;SDS011;8445;51.270;9.434;2023-02-04T03:46:11;13.50;;;2.90;;
16662;SDS011;8445;51.270;9.434;2023-02-04T03:48:37;15.80;;;3.90;;
16662;SDS011;8445;51.270;9.434;2023-02-04T03:51:02;10.43;;;2.13;;
16662;SDS011;8445;51.270;9.434;2023-02-04T03:53:28;17.50;;;4.00;;
16662;SDS011;8445;51.270;9.434;2023-02-04T03:55:53;13.77;;;2.60;;
16662;SDS011;8445;51.270;9.434;2023-02-04T03:58:19;14.50;;;3.57;;
16662;SDS011;8445;51.270;9.434;2023-02-04T04:00:45;18.30;;;4.60;;
16662;SDS011;8445;51.270;9.434;2023-02-04T04:03:10;17.33;;;4.30;;
16662;SDS011;8445;51.270;9.434;2023-02-04T04:05:36;21.83;;;5.13;;
16662;SDS011;8445;51.270;9.434;2023-02-04T04:08:01;14.37;;;4.23;;
16662;SDS011;8445;51.270;9.434;2023-02-04T04:10:27;16.80;;;3.77;;
16662;SDS011;8445;51.270;9.434;2023-02-04T04:12:53;24.13;;;3.57;;
16662;SDS011;8445;51.270;9.434;2023-02-04T04:15:19;23.40;;;4.30;;
16662;SDS011;8445;51.270;9.434;2023-02-04T04:17:44;22.93;;;5.37;;
16662;SDS011;8445;51.270;9.434;2023-02-04T04:20:10;18.93;;;5.00;;
16662;SDS011;8445;51.270;9.434;2023-02-04T04:22:36;22.50;;;4.60;;
16662;SDS011;8445;51.270;9.434;2023-02-04T04:25:01;24.50;;;5.50;;
16662;SDS011;8445;51.270;9.434;2023-02-04T04:27:27;26.67;;;5.50;;
16662;SDS011;8445;51.270;9.434;2023-02-04T04:29:54;26.10;;;4.37;;
16662;SDS011;8445;51.270;9.434;2023-02-04T04:32:20;23.80;;;4.63;;
16662;SDS011;8445;51.270;9.434;2023-02-04T04:34:45;25.30;;;5.87;;
16662;SDS011;8445;51.270;9.434;2023-02-04T04:37:11;21.40;;;5.07;;
16662;SDS011;8445;51.270;9.434;2023-02-04T04:39:36;26.33;;;4.67;;
16662;SDS011;8445;51.270;9.434;2023-02-04T04:42:02;22.30;;;5.27;;
16662;SDS011;8445;51.270;9.434;2023-02-04T04:44:27;23.53;;;5.17;;
16662;SDS011;8445;51.270;9.434;2023-02-04T04:46:53;31.27;;;5.40;;
16662;SDS011;8445;51.270;9.434;2023-02-04T04:49:19;29.43;;;5.57;;
16662;SDS011;8445;51.270;9.434;2023-02-04T04:51:44;33.80;;;5.80;;
16662;SDS011;8445;51.270;9.434;2023-02-04T04:54:09;30.70;;;4.60;;
16662;SDS011;8445;51.270;9.434;2023-02-04T04:56:35;26.00;;;4.20;;
16662;SDS011;8445;51.270;9.434;2023-02-04T04:59:00;25.03;;;4.27;;
16662;SDS011;8445;51.270;9.434;2023-02-04T05:01:27;13.80;;;3.50;;
16662;SDS011;8445;51.270;9.434;2023-02-04T05:03:53;17.70;;;3.63;;
16662;SDS011;8445;51.270;9.434;2023-02-04T05:06:18;17.27;;;3.70;;
16662;SDS011;8445;51.270;9.434;2023-02-04T05:08:52;10.00;;;3.50;;
16662;SDS011;8445;51.270;9.434;2023-02-04T05:11:18;20.13;;;3.97;;
16662;SDS011;8445;51.270;9.434;2023-02-04T05:13:44;20.23;;;4.50;;
16662;SDS011;8445;51.270;9.434;2023-02-04T05:16:09;15.07;;;3.40;;
16662;SDS011;8445;51.270;9.434;2023-02-04T05:18:39;21.83;;;4.33;;
16662;SDS011;8445;51.270;9.434;2023-02-04T05:21:05;16.27;;;3.27;;
16662;SDS011;8445;51.270;9.434;2023-02-04T05:23:31;14.43;;;3.50;;
16662;SDS011;8445;51.270;9.434;2023-02-04T05:25:57;14.90;;;3.30;;
16662;SDS011;8445;51.270;9.434;2023-02-04T05:28:23;20.73;;;5.07;;
16662;SDS011;8445;51.270;9.434;2023-02-04T05:30:48;17.10;;;3.23;;
16662;SDS011;8445;51.270;9.434;2023-02-04T05:33:14;17.30;;;3.53;;
16662;SDS011;8445;51.270;9.434;2023-02-04T05:35:39;18.23;;;3.80;;
16662;SDS011;8445;51.270;9.434;2023-02-04T05:38:05;13.03;;;3.03;;
16662;SDS011;8445;51.270;9.434;2023-02-04T05:40:30;10.97;;;2.90;;
16662;SDS011;8445;51.270;9.434;2023-02-04T05:42:56;19.77;;;3.37;;
16662;SDS011;8445;51.270;9.434;2023-02-04T05:45:21;11.17;;;3.17;;
16662;SDS011;8445;51.270;9.434;2023-02-04T05:47:46;15.33;;;3.20;;
16662;SDS011;8445;51.270;9.434;2023-02-04T05:50:12;9.90;;;2.67;;
16662;SDS011;8445;51.270;9.434;2023-02-04T05:52:38;13.30;;;2.80;;
16662;SDS011;8445;51.270;9.434;2023-02-04T05:55:04;13.97;;;2.90;;
16662;SDS011;8445;51.270;9.434;2023-02-04T05:57:30;14.03;;;2.87;;
16662;SDS011;8445;51.270;9.434;2023-02-04T05:59:55;13.30;;;2.83;;
16662;SDS011;8445;51.270;9.434;2023-02-04T06:02:21;11.60;;;2.73;;
16662;SDS011;8445;51.270;9.434;2023-02-04T06:04:46;7.17;;;2.80;;
16662;SDS011;8445;51.270;9.434;2023-02-04T06:07:12;7.03;;;1.80;;
16662;SDS011;8445;51.270;9.434;2023-02-04T06:09:37;5.70;;;1.90;;
16662;SDS011;8445;51.270;9.434;2023-02-04T06:12:02;1.73;;;1.30;;
16662;SDS011;8445;51.270;9.434;2023-02-04T06:14:28;3.73;;;1.40;;
16662;SDS011;8445;51.270;9.434;2023-02-04T06:16:53;1.53;;;1.30;;
16662;SDS011;8445;51.270;9.434;2023-02-04T06:19:19;1.77;;;1.20;;
16662;SDS011;8445;51.270;9.434;2023-02-04T06:21:44;1.00;;;1.00;;
16662;SDS011;8445;51.270;9.434;2023-02-04T06:24:10;1.10;;;1.10;;
16662;SDS011;8445;51.270;9.434;2023-02-04T06:26:35;1.10;;;1.10;;
16662;SDS011;8445;51.270;9.434;2023-02-04T06:29:01;1.00;;;1.00;;
16662;SDS011;8445;51.270;9.434;2023-02-04T06:31:26;1.00;;;1.00;;
16662;SDS011;8445;51.270;9.434;2023-02-04T06:33:52;1.77;;;1.10;;
16662;SDS011;8445;51.270;9.434;2023-02-04T06:36:17;1.53;;;1.37;;
16662;SDS011;8445;51.270;9.434;2023-02-04T06:38:43;1.80;;;1.27;;
16662;SDS011;8445;51.270;9.434;2023-02-04T06:41:08;1.20;;;1.10;;
16662;SDS011;8445;51.270;9.434;2023-02-04T06:43:33;1.10;;;1.00;;
16662;SDS011;8445;51.270;9.434;2023-02-04T06:45:59;1.03;;;1.03;;
16662;SDS011;8445;51.270;9.434;2023-02-04T06:48:24;2.27;;;1.17;;
16662;SDS011;8445;51.270;9.434;2023-02-04T06:50:50;1.57;;;1.47;;
16662;SDS011;8445;51.270;9.434;2023-02-04T06:53:15;1.20;;;1.10;;
16662;SDS011;8445;51.270;9.434;2023-02-04T06:55:41;1.40;;;1.30;;
16662;SDS011;8445;51.270;9.434;2023-02-04T06:58:06;2.20;;;1.30;;
16662;SDS011;8445;51.270;9.434;2023-02-04T07:00:32;1.40;;;1.40;;
16662;SDS011;8445;51.270;9.434;2023-02-04T07:02:57;1.67;;;1.50;;
16662;SDS011;8445;51.270;9.434;2023-02-04T07:05:23;1.53;;;1.37;;
16662;SDS011;8445;51.270;9.434;2023-02-04T07:07:49;2.73;;;1.50;;
16662;SDS011;8445;51.270;9.434;2023-02-04T07:10:15;1.83;;;1.60;;
16662;SDS011;8445;51.270;9.434;2023-02-04T07:12:42;1.60;;;1.30;;
16662;SDS011;8445;51.270;9.434;2023-02-04T07:15:07;1.67;;;1.27;;
16662;SDS011;8445;51.270;9.434;2023-02-04T07:17:33;2.30;;;2.10;;
16662;SDS011;8445;51.270;9.434;2023-02-04T07:19:59;3.00;;;1.93;;
16662;SDS011;8445;51.270;9.434;2023-02-04T07:22:24;3.13;;;1.97;;
16662;SDS011;8445;51.270;9.434;2023-02-04T07:24:50;2.30;;;1.70;;
16662;SDS011;8445;51.270;9.434;2023-02-04T07:27:15;1.53;;;1.43;;
16662;SDS011;8445;51.270;9.434;2023-02-04T07:29:41;1.93;;;1.77;;
16662;SDS011;8445;51.270;9.434;2023-02-04T07:32:06;1.80;;;1.70;;
16662;SDS011;8445;51.270;9.434;2023-02-04T07:34:32;2.10;;;1.70;;
16662;SDS011;8445;51.270;9.434;2023-02-04T07:36:57;3.90;;;1.90;;
16662;SDS011;8445;51.270;9.434;2023-02-04T07:39:23;2.00;;;1.80;;
16662;SDS011;8445;51.270;9.434;2023-02-04T07:41:48;1.90;;;1.60;;
16662;SDS011;8445;51.270;9.434;2023-02-04T07:44:20;2.50;;;1.83;;
16662;SDS011;8445;51.270;9.434;2023-02-04T07:46:45;2.23;;;2.03;;
16662;SDS011;8445;51.270;9.434;2023-02-04T07:49:10;2.00;;;1.37;;
16662;SDS011;8445;51.270;9.434;2023-02-04T07:51:36;1.70;;;1.60;;
16662;SDS011;8445;51.270;9.434;2023-02-04T07:54:01;2.13;;;1.80;;
16662;SDS011;8445;51.270;9.434;2023-02-04T07:56:27;1.77;;;1.67;;
16662;SDS011;8445;51.270;9.434;2023-02-04T07:58:52;1.73;;;1.63;;
16662;SDS011;8445;51.270;9.434;2023-02-04T08:01:18;2.03;;;1.83;;
16662;SDS011;8445;51.270;9.434;2023-02-04T08:03:43;1.87;;;1.77;;
16662;SDS011;8445;51.270;9.434;2023-02-04T08:06:09;3.50;;;1.70;;
16662;SDS011;8445;51.270;9.434;2023-02-04T08:08:35;2.30;;;1.80;;
16662;SDS011;8445;51.270;9.434;2023-02-04T08:11:00;2.00;;;1.90;;
16662;SDS011;8445;51.270;9.434;2023-02-04T08:13:26;2.37;;;2.00;;
16662;SDS011;8445;51.270;9.434;2023-02-04T08:15:51;1.77;;;1.67;;
16662;SDS011;8445;51.270;9.434;2023-02-04T08:18:17;1.90;;;1.80;;
16662;SDS011;8445;51.270;9.434;2023-02-04T08:20:42;2.00;;;1.90;;
16662;SDS011;8445;51.270;9.434;2023-02-04T08:23:07;1.90;;;1.80;;
16662;SDS011;8445;51.270;9.434;2023-02-04T08:25:33;2.80;;;1.93;;
16662;SDS011;8445;51.270;9.434;2023-02-04T08:27:59;1.70;;;1.60;;
16662;SDS011;8445;51.270;9.434;2023-02-04T08:30:24;1.83;;;1.57;;
16662;SDS011;8445;51.270;9.434;2023-02-04T08:32:49;2.20;;;2.00;;
16662;SDS011;8445;51.270;9.434;2023-02-04T08:35:15;2.00;;;1.90;;
16662;SDS011;8445;51.270;9.434;2023-02-04T08:37:41;2.53;;;2.10;;
16662;SDS011;8445;51.270;9.434;2023-02-04T08:40:06;3.77;;;2.03;;
16662;SDS011;8445;51.270;9.434;2023-02-04T08:42:32;2.70;;;2.00;;
16662;SDS011;8445;51.270;9.434;2023-02-04T08:44:59;2.47;;;2.00;;
16662;SDS011;8445;51.270;9.434;2023-02-04T08:47:24;3.57;;;2.63;;
16662;SDS011;8445;51.270;9.434;2023-02-04T08:49:50;2.30;;;2.10;;
16662;SDS011;8445;51.270;9.434;2023-02-04T08:52:15;3.03;;;2.33;;
16662;SDS011;8445;51.270;9.434;2023-02-04T08:54:41;2.43;;;2.23;;
16662;SDS011;8445;51.270;9.434;2023-02-04T08:57:06;2.60;;;2.40;;
16662;SDS011;8445;51.270;9.434;2023-02-04T08:59:32;3.00;;;2.30;;
16662;SDS011;8445;51.270;9.434;2023-02-04T09:01:57;3.27;;;2.70;;
16662;SDS011;8445;51.270;9.434;2023-02-04T09:04:23;2.60;;;2.20;;
16662;SDS011;8445;51.270;9.434;2023-02-04T09:06:49;2.60;;;2.40;;
16662;SDS011;8445;51.270;9.434;2023-02-04T09:09:15;2.97;;;2.30;;
16662;SDS011;8445;51.270;9.434;2023-02-04T09:11:41;3.10;;;2.80;;
16662;SDS011;8445;51.270;9.434;2023-02-04T09:14:07;3.00;;;2.33;;
16662;SDS011;8445;51.270;9.434;2023-02-04T09:16:33;3.30;;;2.30;;
16662;SDS011;8445;51.270;9.434;2023-02-04T09:18:58;2.80;;;2.30;;
16662;SDS011;8445;51.270;9.434;2023-02-04T09:21:25;4.37;;;2.60;;
16662;SDS011;8445;51.270;9.434;2023-02-04T09:23:51;3.30;;;2.90;;
16662;SDS011;8445;51.270;9.434;2023-02-04T09:26:17;3.07;;;2.60;;
16662;SDS011;8445;51.270;9.434;2023-02-04T09:28:42;3.67;;;2.37;;
16662;SDS011;8445;51.270;9.434;2023-02-04T09:31:08;7.87;;;2.30;;
16662;SDS011;8445;51.270;9.434;2023-02-04T09:33:35;1.97;;;1.87;;
16662;SDS011;8445;51.270;9.434;2023-02-04T09:36:01;3.20;;;2.30;;
16662;SDS011;8445;51.270;9.434;2023-02-04T09:38:26;2.20;;;2.10;;
16662;SDS011;8445;51.270;9.434;2023-02-04T09:40:56;2.57;;;2.37;;
16662;SDS011;8445;51.270;9.434;2023-02-04T09:43:28;2.50;;;2.30;;
16662;SDS011;8445;51.270;9.434;2023-02-04T09:45:56;2.50;;;2.30;;
16662;SDS011;8445;51.270;9.434;2023-02-04T09:48:22;2.07;;;1.73;;
16662;SDS011;8445;51.270;9.434;2023-02-04T09:50:51;2.40;;;2.20;;
16662;SDS011;8445;51.270;9.434;2023-02-04T09:53:25;2.40;;;2.20;;
16662;SDS011;8445;51.270;9.434;2023-02-04T09:55:50;2.30;;;2.10;;
16662;SDS011;8445;51.270;9.434;2023-02-04T09:58:17;2.50;;;2.27;;
16662;SDS011;8445;51.270;9.434;2023-02-04T10:00:45;2.37;;;2.20;;
16662;SDS011;8445;51.270;9.434;2023-02-04T10:03:15;2.97;;;2.67;;
16662;SDS011;8445;51.270;9.434;2023-02-04T10:05:43;2.53;;;2.17;;
16662;SDS011;8445;51.270;9.434;2023-02-04T10:08:14;2.43;;;1.90;;
16662;SDS011;8445;51.270;9.434;2023-02-04T10:10:42;1.83;;;1.73;;
16662;SDS011;8445;51.270;9.434;2023-02-04T10:13:13;2.30;;;2.10;;
16662;SDS011;8445;51.270;9.434;2023-02-04T10:15:43;2.07;;;1.83;;
16662;SDS011;8445;51.270;9.434;2023-02-04T10:18:10;2.30;;;1.90;;
16662;SDS011;8445;51.270;9.434;2023-02-04T10:20:45;3.20;;;2.33;;
16662;SDS011;8445;51.270;9.434;2023-02-04T10:23:32;3.00;;;2.00;;
16662;SDS011;8445;51.270;9.434;2023-02-04T10:25:58;2.30;;;2.00;;
16662;SDS011;8445;51.270;9.434;2023-02-04T10:28:32;3.03;;;1.87;;
16662;SDS011;8445;51.270;9.434;2023-02-04T10:31:01;2.90;;;1.90;;
16662;SDS011;8445;51.270;9.434;2023-02-04T10:33:34;3.50;;;2.70;;
16662;SDS011;8445;51.270;9.434;2023-02-04T10:36:02;3.00;;;2.03;;
16662;SDS011;8445;51.270;9.434;2023-02-04T10:38:29;1.67;;;1.57;;
16662;SDS011;8445;51.270;9.434;2023-02-04T10:41:01;2.20;;;2.00;;
16662;SDS011;8445;51.270;9.434;2023-02-04T10:43:28;2.20;;;2.00;;
16662;SDS011;8445;51.270;9.434;2023-02-04T10:45:54;1.93;;;1.83;;
16662;SDS011;8445;51.270;9.434;2023-02-04T10:48:22;3.50;;;2.03;;
16662;SDS011;8445;51.270;9.434;2023-02-04T10:50:48;2.93;;;2.03;;
16662;SDS011;8445;51.270;9.434;2023-02-04T10:53:14;2.37;;;2.17;;
16662;SDS011;8445;51.270;9.434;2023-02-04T10:56:04;2.27;;;2.07;;
16662;SDS011;8445;51.270;9.434;2023-02-04T10:58:40;2.33;;;2.13;;
16662;SDS011;8445;51.270;9.434;2023-02-04T11:01:10;3.22;;;2.25;;
16662;SDS011;8445;51.270;9.434;2023-02-04T11:03:40;2.67;;;2.47;;
16662;SDS011;8445;51.270;9.434;2023-02-04T11:06:09;2.63;;;2.22;;
16662;SDS011;8445;51.270;9.434;2023-02-04T11:08:37;2.53;;;2.10;;
16662;SDS011;8445;51.270;9.434;2023-02-04T11:18:44;5.17;;;2.20;;
16662;SDS011;8445;51.270;9.434;2023-02-04T11:24:03;3.90;;;3.40;;
16662;SDS011;8445;51.270;9.434;2023-02-04T11:26:41;1.73;;;1.63;;
16662;SDS011;8445;51.270;9.434;2023-02-04T11:29:21;2.20;;;1.80;;
16662;SDS011;8445;51.270;9.434;2023-02-04T11:39:39;2.47;;;1.67;;
16662;SDS011;8445;51.270;9.434;2023-02-04T11:45:05;2.05;;;1.75;;
16662;SDS011;8445;51.270;9.434;2023-02-04T11:47:39;2.47;;;2.10;;
16662;SDS011;8445;51.270;9.434;2023-02-04T11:50:16;2.38;;;2.17;;
16662;SDS011;8445;51.270;9.434;2023-02-04T11:52:53;2.03;;;1.75;;
16662;SDS011;8445;51.270;9.434;2023-02-04T11:55:18;1.90;;;1.70;;
16662;SDS011;8445;51.270;9.434;2023-02-04T11:57:44;2.65;;;1.90;;
16662;SDS011;8445;51.270;9.434;2023-02-04T12:02:42;3.38;;;1.55;;
16662;SDS011;8445;51.270;9.434;2023-02-04T12:05:14;2.00;;;1.80;;
16662;SDS011;8445;51.270;9.434;2023-02-04T12:07:42;2.13;;;1.92;;
16662;SDS011;8445;51.270;9.434;2023-02-04T12:10:21;3.28;;;2.15;;
16662;SDS011;8445;51.270;9.434;2023-02-04T12:12:53;1.40;;;1.30;;
16662;SDS011;8445;51.270;9.434;2023-02-04T12:15:23;1.70;;;1.40;;
16662;SDS011;8445;51.270;9.434;2023-02-04T12:20:44;2.08;;;1.63;;
16662;SDS011;8445;51.270;9.434;2023-02-04T12:23:12;2.80;;;1.60;;
16662;SDS011;8445;51.270;9.434;2023-02-04T12:25:38;2.70;;;1.83;;
16662;SDS011;8445;51.270;9.434;2023-02-04T12:28:03;2.63;;;1.70;;
16662;SDS011;8445;51.270;9.434;2023-02-04T12:30:29;1.83;;;1.73;;
16662;SDS011;8445;51.270;9.434;2023-02-04T12:32:54;1.90;;;1.50;;
16662;SDS011;8445;51.270;9.434;2023-02-04T12:35:22;1.75;;;1.65;;
16662;SDS011;8445;51.270;9.434;2023-02-04T12:37:47;2.13;;;1.90;;
16662;SDS011;8445;51.270;9.434;2023-02-04T12:40:16;2.92;;;1.75;;
16662;SDS011;8445;51.270;9.434;2023-02-04T12:42:43;3.47;;;1.60;;
16662;SDS011;8445;51.270;9.434;2023-02-04T12:45:09;2.53;;;1.50;;
16662;SDS011;8445;51.270;9.434;2023-02-04T12:47:36;1.92;;;1.83;;
16662;SDS011;8445;51.270;9.434;2023-02-04T12:50:05;2.03;;;1.83;;
16662;SDS011;8445;51.270;9.434;2023-02-04T12:52:31;2.67;;;1.90;;
16662;SDS011;8445;51.270;9.434;2023-02-04T12:54:56;1.97;;;1.77;;
16662;SDS011;8445;51.270;9.434;2023-02-04T12:57:24;2.03;;;1.83;;
16662;SDS011;8445;51.270;9.434;2023-02-04T12:59:52;2.07;;;1.60;;
16662;SDS011;8445;51.270;9.434;2023-02-04T13:02:17;2.70;;;2.00;;
16662;SDS011;8445;51.270;9.434;2023-02-04T13:04:43;2.23;;;1.83;;
16662;SDS011;8445;51.270;9.434;2023-02-04T13:07:08;1.77;;;1.67;;
16662;SDS011;8445;51.270;9.434;2023-02-04T13:09:34;4.60;;;2.90;;
16662;SDS011;8445;51.270;9.434;2023-02-04T13:12:01;1.50;;;1.40;;
16662;SDS011;8445;51.270;9.434;2023-02-04T13:14:26;1.50;;;1.40;;
16662;SDS011;8445;51.270;9.434;2023-02-04T13:16:52;1.80;;;1.70;;
16662;SDS011;8445;51.270;9.434;2023-02-04T13:19:17;1.97;;;1.60;;
16662;SDS011;8445;51.270;9.434;2023-02-04T13:21:43;1.55;;;1.40;;
16662;SDS011;8445;51.270;9.434;2023-02-04T13:24:08;1.13;;;1.13;;
16662;SDS011;8445;51.270;9.434;2023-02-04T13:26:34;1.67;;;1.57;;
16662;SDS011;8445;51.270;9.434;2023-02-04T13:28:59;1.50;;;1.40;;
16662;SDS011;8445;51.270;9.434;2023-02-04T13:31:24;1.53;;;1.43;;
16662;SDS011;8445;51.270;9.434;2023-02-04T13:33:50;2.23;;;1.57;;
16662;SDS011;8445;51.270;9.434;2023-02-04T13:36:15;2.13;;;1.93;;
16662;SDS011;8445;51.270;9.434;2023-02-04T13:38:41;1.67;;;1.57;;
16662;SDS011;8445;51.270;9.434;2023-02-04T13:41:06;1.63;;;1.48;;
16662;SDS011;8445;51.270;9.434;2023-02-04T13:43:32;1.60;;;1.50;;
16662;SDS011;8445;51.270;9.434;2023-02-04T13:45:57;2.07;;;1.70;;
16662;SDS011;8445;51.270;9.434;2023-02-04T13:48:23;1.90;;;1.80;;
16662;SDS011;8445;51.270;9.434;2023-02-04T13:50:48;2.35;;;1.70;;
16662;SDS011;8445;51.270;9.434;2023-02-04T13:53:15;1.83;;;1.40;;
16662;SDS011;8445;51.270;9.434;2023-02-04T13:55:41;2.10;;;1.80;;
16662;SDS011;8445;51.270;9.434;2023-02-04T13:58:07;1.80;;;1.70;;
16662;SDS011;8445;51.270;9.434;2023-02-04T14:00:35;1.77;;;1.60;;
16662;SDS011;8445;51.270;9.434;2023-02-04T14:03:01;2.13;;;1.90;;
16662;SDS011;8445;51.270;9.434;2023-02-04T14:05:28;1.77;;;1.67;;
16662;SDS011;8445;51.270;9.434;2023-02-04T14:07:54;3.13;;;1.70;;
16662;SDS011;8445;51.270;9.434;2023-02-04T14:13:53;1.60;;;1.50;;
16662;SDS011;8445;51.270;9.434;2023-02-04T14:16:24;3.13;;;1.63;;
16662;SDS011;8445;51.270;9.434;2023-02-04T14:18:52;3.47;;;2.07;;
16662;SDS011;8445;51.270;9.434;2023-02-04T14:21:18;1.63;;;1.53;;
16662;SDS011;8445;51.270;9.434;2023-02-04T14:23:53;1.20;;;1.10;;
16662;SDS011;8445;51.270;9.434;2023-02-04T14:26:20;1.50;;;1.40;;
16662;SDS011;8445;51.270;9.434;2023-02-04T14:28:49;2.37;;;1.57;;
16662;SDS011;8445;51.270;9.434;2023-02-04T14:31:19;1.83;;;1.70;;
16662;SDS011;8445;51.270;9.434;2023-02-04T14:33:53;2.07;;;1.73;;
16662;SDS011;8445;51.270;9.434;2023-02-04T14:36:20;1.70;;;1.60;;
16662;SDS011;8445;51.270;9.434;2023-02-04T14:38:46;2.03;;;1.83;;
16662;SDS011;8445;51.270;9.434;2023-02-04T14:41:14;1.93;;;1.77;;
16662;SDS011;8445;51.270;9.434;2023-02-04T14:43:44;2.10;;;1.50;;
16662;SDS011;8445;51.270;9.434;2023-02-04T14:46:26;2.97;;;1.90;;
16662;SDS011;8445;51.270;9.434;2023-02-04T14:48:52;2.50;;;1.90;;
16662;SDS011;8445;51.270;9.434;2023-02-04T14:51:18;2.07;;;1.83;;
16662;SDS011;8445;51.270;9.434;2023-02-04T14:53:44;1.57;;;1.30;;
16662;SDS011;8445;51.270;9.434;2023-02-04T14:56:11;4.23;;;2.00;;
16662;SDS011;8445;51.270;9.434;2023-02-04T14:58:36;1.80;;;1.70;;
16662;SDS011;8445;51.270;9.434;2023-02-04T15:01:02;2.00;;;1.60;;
16662;SDS011;8445;51.270;9.434;2023-02-04T15:03:29;1.90;;;1.70;;
16662;SDS011;8445;51.270;9.434;2023-02-04T15:05:55;2.23;;;1.70;;
16662;SDS011;8445;51.270;9.434;2023-02-04T15:08:20;2.53;;;1.20;;
16662;SDS011;8445;51.270;9.434;2023-02-04T15:10:46;1.87;;;1.63;;
16662;SDS011;8445;51.270;9.434;2023-02-04T15:13:12;2.97;;;1.60;;
16662;SDS011;8445;51.270;9.434;2023-02-04T15:15:37;1.63;;;1.53;;
16662;SDS011;8445;51.270;9.434;2023-02-04T15:18:03;2.03;;;1.70;;
16662;SDS011;8445;51.270;9.434;2023-02-04T15:20:28;2.77;;;1.60;;
16662;SDS011;8445;51.270;9.434;2023-02-04T15:22:53;2.60;;;1.50;;